sensor_id;sensor_type;location;lat;lon;timestamp;P1;durP1;ratioP1;P2;durP2;ratioP2
39994;SDS011;25686;51.908;10.418;2024-03-02T00:00:21;20.05;;;11.88;;
39994;SDS011;25686;51.908;10.418;2024-03-02T00:02:22;20.52;;;12.20;;
39994;SDS011;25686;51.908;10.418;2024-03-02T00:04:23;19.65;;;12.05;;
39994;SDS011;25686;51.908;10.418;2024-03-02T00:06:24;21.90;;;12.48;;
39994;SDS011;25686;51.908;10.418;2024-03-02T00:08:25;19.55;;;11.88;;
39994;SDS011;25686;51.908;10.418;2024-03-02T00:10:27;20.88;;;12.38;;
39994;SDS011;25686;51.908;10.418;2024-03-02T00:12:31;19.00;;;11.82;;
39994;SDS011;25686;51.908;10.418;2024-03-02T00:14:32;22.20;;;12.77;;
39994;SDS011;25686;51.908;10.418;2024-03-02T00:16:33;20.05;;;12.07;;
39994;SDS011;25686;51.908;10.418;2024-03-02T00:18:34;21.92;;;12.52;;
39994;SDS011;25686;51.908;10.418;2024-03-02T00:20:35;21.50;;;12.32;;
39994;SDS011;25686;51.908;10.418;2024-03-02T00:22:37;22.38;;;12.85;;
39994;SDS011;25686;51.908;10.418;2024-03-02T00:24:38;20.05;;;12.10;;
39994;SDS011;25686;51.908;10.418;2024-03-02T00:26:40;19.58;;;12.43;;
39994;SDS011;25686;51.908;10.418;2024-03-02T00:28:44;19.65;;;11.55;;
39994;SDS011;25686;51.908;10.418;2024-03-02T00:30:55;18.90;;;11.82;;
39994;SDS011;25686;51.908;10.418;2024-03-02T00:32:57;19.83;;;11.70;;
39994;SDS011;25686;51.908;10.418;2024-03-02T00:34:59;22.05;;;12.52;;
39994;SDS011;25686;51.908;10.418;2024-03-02T00:37:00;20.35;;;12.18;;
39994;SDS011;25686;51.908;10.418;2024-03-02T00:39:01;21.80;;;12.23;;
39994;SDS011;25686;51.908;10.418;2024-03-02T00:41:05;21.30;;;11.80;;
39994;SDS011;25686;51.908;10.418;2024-03-02T00:43:18;19.05;;;11.75;;
39994;SDS011;25686;51.908;10.418;2024-03-02T00:45:22;18.20;;;12.10;;
39994;SDS011;25686;51.908;10.418;2024-03-02T00:47:24;20.27;;;12.30;;
39994;SDS011;25686;51.908;10.418;2024-03-02T00:49:25;19.40;;;12.65;;
39994;SDS011;25686;51.908;10.418;2024-03-02T00:51:29;19.50;;;11.60;;
39994;SDS011;25686;51.908;10.418;2024-03-02T00:53:30;19.15;;;11.48;;
39994;SDS011;25686;51.908;10.418;2024-03-02T00:55:36;20.70;;;12.13;;
39994;SDS011;25686;51.908;10.418;2024-03-02T00:57:37;20.38;;;12.27;;
39994;SDS011;25686;51.908;10.418;2024-03-02T00:59:38;18.60;;;12.05;;
39994;SDS011;25686;51.908;10.418;2024-03-02T01:01:39;19.10;;;11.73;;
39994;SDS011;25686;51.908;10.418;2024-03-02T01:03:40;19.88;;;12.40;;
39994;SDS011;25686;51.908;10.418;2024-03-02T01:05:42;22.70;;;12.65;;
39994;SDS011;25686;51.908;10.418;2024-03-02T01:07:43;20.65;;;11.95;;
39994;SDS011;25686;51.908;10.418;2024-03-02T01:09:44;20.55;;;11.82;;
39994;SDS011;25686;51.908;10.418;2024-03-02T01:11:45;21.55;;;12.40;;
39994;SDS011;25686;51.908;10.418;2024-03-02T01:13:46;20.92;;;12.50;;
39994;SDS011;25686;51.908;10.418;2024-03-02T01:15:47;22.77;;;12.23;;
39994;SDS011;25686;51.908;10.418;2024-03-02T01:17:48;18.48;;;11.07;;
39994;SDS011;25686;51.908;10.418;2024-03-02T01:19:49;23.77;;;12.27;;
39994;SDS011;25686;51.908;10.418;2024-03-02T01:21:50;17.95;;;10.70;;
39994;SDS011;25686;51.908;10.418;2024-03-02T01:23:51;21.70;;;11.95;;
39994;SDS011;25686;51.908;10.418;2024-03-02T01:25:52;19.35;;;11.52;;
39994;SDS011;25686;51.908;10.418;2024-03-02T01:27:53;20.90;;;11.75;;
39994;SDS011;25686;51.908;10.418;2024-03-02T01:29:54;20.33;;;10.80;;
39994;SDS011;25686;51.908;10.418;2024-03-02T01:31:55;20.63;;;11.57;;
39994;SDS011;25686;51.908;10.418;2024-03-02T01:33:56;16.83;;;10.90;;
39994;SDS011;25686;51.908;10.418;2024-03-02T01:35:57;21.58;;;10.95;;
39994;SDS011;25686;51.908;10.418;2024-03-02T01:37:58;17.42;;;10.68;;
39994;SDS011;25686;51.908;10.418;2024-03-02T01:39:59;18.83;;;10.65;;
39994;SDS011;25686;51.908;10.418;2024-03-02T01:41:59;17.27;;;11.00;;
39994;SDS011;25686;51.908;10.418;2024-03-02T01:44:00;19.77;;;10.70;;
39994;SDS011;25686;51.908;10.418;2024-03-02T01:46:01;20.88;;;11.05;;
39994;SDS011;25686;51.908;10.418;2024-03-02T01:48:04;19.17;;;11.55;;
39994;SDS011;25686;51.908;10.418;2024-03-02T01:50:05;18.30;;;10.52;;
39994;SDS011;25686;51.908;10.418;2024-03-02T01:52:07;20.20;;;11.23;;
39994;SDS011;25686;51.908;10.418;2024-03-02T01:54:08;21.58;;;12.23;;
39994;SDS011;25686;51.908;10.418;2024-03-02T01:56:09;19.70;;;10.95;;
39994;SDS011;25686;51.908;10.418;2024-03-02T01:58:10;22.35;;;11.20;;
39994;SDS011;25686;51.908;10.418;2024-03-02T02:00:11;15.90;;;10.10;;
39994;SDS011;25686;51.908;10.418;2024-03-02T02:02:13;19.88;;;10.60;;
39994;SDS011;25686;51.908;10.418;2024-03-02T02:04:14;16.35;;;10.02;;
39994;SDS011;25686;51.908;10.418;2024-03-02T02:06:15;18.67;;;10.95;;
39994;SDS011;25686;51.908;10.418;2024-03-02T02:08:16;22.35;;;11.13;;
39994;SDS011;25686;51.908;10.418;2024-03-02T02:10:17;18.23;;;11.43;;
39994;SDS011;25686;51.908;10.418;2024-03-02T02:12:18;17.30;;;11.38;;
39994;SDS011;25686;51.908;10.418;2024-03-02T02:14:19;20.23;;;12.30;;
39994;SDS011;25686;51.908;10.418;2024-03-02T02:16:20;21.38;;;12.07;;
39994;SDS011;25686;51.908;10.418;2024-03-02T02:18:21;18.67;;;11.63;;
39994;SDS011;25686;51.908;10.418;2024-03-02T02:20:23;21.63;;;12.80;;
39994;SDS011;25686;51.908;10.418;2024-03-02T02:22:24;19.48;;;11.73;;
39994;SDS011;25686;51.908;10.418;2024-03-02T02:24:25;19.00;;;11.95;;
39994;SDS011;25686;51.908;10.418;2024-03-02T02:26:26;23.27;;;12.23;;
39994;SDS011;25686;51.908;10.418;2024-03-02T02:28:27;19.30;;;11.63;;
39994;SDS011;25686;51.908;10.418;2024-03-02T02:30:29;19.50;;;11.43;;
39994;SDS011;25686;51.908;10.418;2024-03-02T02:32:30;20.85;;;12.32;;
39994;SDS011;25686;51.908;10.418;2024-03-02T02:34:31;19.25;;;11.65;;
39994;SDS011;25686;51.908;10.418;2024-03-02T02:36:32;21.58;;;12.52;;
39994;SDS011;25686;51.908;10.418;2024-03-02T02:38:35;21.55;;;11.98;;
39994;SDS011;25686;51.908;10.418;2024-03-02T02:40:36;25.23;;;11.55;;
39994;SDS011;25686;51.908;10.418;2024-03-02T02:42:38;18.73;;;10.95;;
39994;SDS011;25686;51.908;10.418;2024-03-02T02:44:39;20.25;;;12.10;;
39994;SDS011;25686;51.908;10.418;2024-03-02T02:46:40;22.80;;;12.05;;
39994;SDS011;25686;51.908;10.418;2024-03-02T02:48:41;22.10;;;12.60;;
39994;SDS011;25686;51.908;10.418;2024-03-02T02:50:42;19.48;;;11.73;;
39994;SDS011;25686;51.908;10.418;2024-03-02T02:52:43;20.60;;;11.75;;
39994;SDS011;25686;51.908;10.418;2024-03-02T02:54:44;20.92;;;12.05;;
39994;SDS011;25686;51.908;10.418;2024-03-02T02:56:45;20.20;;;11.45;;
39994;SDS011;25686;51.908;10.418;2024-03-02T02:58:46;23.45;;;13.38;;
39994;SDS011;25686;51.908;10.418;2024-03-02T03:00:47;20.98;;;12.80;;
39994;SDS011;25686;51.908;10.418;2024-03-02T03:02:48;22.02;;;12.80;;
39994;SDS011;25686;51.908;10.418;2024-03-02T03:04:49;21.48;;;12.88;;
39994;SDS011;25686;51.908;10.418;2024-03-02T03:06:50;20.73;;;12.98;;
39994;SDS011;25686;51.908;10.418;2024-03-02T03:08:51;21.27;;;13.93;;
39994;SDS011;25686;51.908;10.418;2024-03-02T03:10:52;20.60;;;12.73;;
39994;SDS011;25686;51.908;10.418;2024-03-02T03:12:53;22.38;;;12.77;;
39994;SDS011;25686;51.908;10.418;2024-03-02T03:14:56;22.50;;;12.88;;
39994;SDS011;25686;51.908;10.418;2024-03-02T03:16:57;21.48;;;12.73;;
39994;SDS011;25686;51.908;10.418;2024-03-02T03:18:58;22.85;;;12.80;;
39994;SDS011;25686;51.908;10.418;2024-03-02T03:20:59;20.30;;;11.90;;
39994;SDS011;25686;51.908;10.418;2024-03-02T03:23:00;20.75;;;12.73;;
39994;SDS011;25686;51.908;10.418;2024-03-02T03:25:01;20.35;;;12.75;;
39994;SDS011;25686;51.908;10.418;2024-03-02T03:27:03;21.35;;;12.23;;
39994;SDS011;25686;51.908;10.418;2024-03-02T03:29:04;20.60;;;12.50;;
39994;SDS011;25686;51.908;10.418;2024-03-02T03:31:05;18.67;;;11.32;;
39994;SDS011;25686;51.908;10.418;2024-03-02T03:33:07;19.80;;;11.98;;
39994;SDS011;25686;51.908;10.418;2024-03-02T03:35:08;23.05;;;12.20;;
39994;SDS011;25686;51.908;10.418;2024-03-02T03:37:09;18.67;;;11.57;;
39994;SDS011;25686;51.908;10.418;2024-03-02T03:39:10;20.85;;;11.85;;
39994;SDS011;25686;51.908;10.418;2024-03-02T03:41:11;21.70;;;12.50;;
39994;SDS011;25686;51.908;10.418;2024-03-02T03:43:11;23.17;;;12.07;;
39994;SDS011;25686;51.908;10.418;2024-03-02T03:45:12;22.02;;;10.95;;
39994;SDS011;25686;51.908;10.418;2024-03-02T03:47:13;19.80;;;11.65;;
39994;SDS011;25686;51.908;10.418;2024-03-02T03:49:14;19.75;;;11.02;;
39994;SDS011;25686;51.908;10.418;2024-03-02T03:51:15;19.55;;;11.32;;
39994;SDS011;25686;51.908;10.418;2024-03-02T03:53:16;20.85;;;11.55;;
39994;SDS011;25686;51.908;10.418;2024-03-02T03:55:17;19.88;;;11.15;;
39994;SDS011;25686;51.908;10.418;2024-03-02T03:57:18;18.80;;;11.82;;
39994;SDS011;25686;51.908;10.418;2024-03-02T03:59:19;20.45;;;11.52;;
39994;SDS011;25686;51.908;10.418;2024-03-02T04:01:20;22.23;;;11.75;;
39994;SDS011;25686;51.908;10.418;2024-03-02T04:03:22;17.98;;;11.05;;
39994;SDS011;25686;51.908;10.418;2024-03-02T04:05:23;21.42;;;11.60;;
39994;SDS011;25686;51.908;10.418;2024-03-02T04:07:24;18.50;;;11.10;;
39994;SDS011;25686;51.908;10.418;2024-03-02T04:09:25;19.08;;;11.35;;
39994;SDS011;25686;51.908;10.418;2024-03-02T04:11:26;17.80;;;10.95;;
39994;SDS011;25686;51.908;10.418;2024-03-02T04:13:27;16.48;;;10.60;;
39994;SDS011;25686;51.908;10.418;2024-03-02T04:15:28;19.08;;;10.27;;
39994;SDS011;25686;51.908;10.418;2024-03-02T04:17:30;17.77;;;10.75;;
39994;SDS011;25686;51.908;10.418;2024-03-02T04:19:32;20.90;;;12.25;;
39994;SDS011;25686;51.908;10.418;2024-03-02T04:21:34;19.13;;;11.40;;
39994;SDS011;25686;51.908;10.418;2024-03-02T04:23:35;20.00;;;10.73;;
39994;SDS011;25686;51.908;10.418;2024-03-02T04:25:36;16.15;;;10.20;;
39994;SDS011;25686;51.908;10.418;2024-03-02T04:27:37;16.75;;;10.35;;
39994;SDS011;25686;51.908;10.418;2024-03-02T04:29:38;17.95;;;10.45;;
39994;SDS011;25686;51.908;10.418;2024-03-02T04:31:39;15.55;;;9.40;;
39994;SDS011;25686;51.908;10.418;2024-03-02T04:33:40;20.60;;;10.23;;
39994;SDS011;25686;51.908;10.418;2024-03-02T04:35:41;18.67;;;10.65;;
39994;SDS011;25686;51.908;10.418;2024-03-02T04:37:42;18.75;;;11.55;;
39994;SDS011;25686;51.908;10.418;2024-03-02T04:39:43;16.48;;;10.13;;
39994;SDS011;25686;51.908;10.418;2024-03-02T04:41:45;15.95;;;10.27;;
39994;SDS011;25686;51.908;10.418;2024-03-02T04:43:46;19.13;;;10.18;;
39994;SDS011;25686;51.908;10.418;2024-03-02T04:45:47;17.30;;;10.32;;
39994;SDS011;25686;51.908;10.418;2024-03-02T04:47:48;17.45;;;10.40;;
39994;SDS011;25686;51.908;10.418;2024-03-02T04:49:49;20.95;;;10.23;;
39994;SDS011;25686;51.908;10.418;2024-03-02T04:51:50;17.30;;;10.43;;
39994;SDS011;25686;51.908;10.418;2024-03-02T04:53:51;16.60;;;9.90;;
39994;SDS011;25686;51.908;10.418;2024-03-02T04:55:52;16.75;;;10.00;;
39994;SDS011;25686;51.908;10.418;2024-03-02T04:58:11;19.65;;;10.35;;
39994;SDS011;25686;51.908;10.418;2024-03-02T05:00:12;19.00;;;10.10;;
39994;SDS011;25686;51.908;10.418;2024-03-02T05:02:14;20.55;;;9.88;;
39994;SDS011;25686;51.908;10.418;2024-03-02T05:04:15;16.70;;;9.95;;
39994;SDS011;25686;51.908;10.418;2024-03-02T05:06:16;14.65;;;9.27;;
39994;SDS011;25686;51.908;10.418;2024-03-02T05:08:17;17.42;;;10.15;;
39994;SDS011;25686;51.908;10.418;2024-03-02T05:10:18;15.75;;;9.43;;
39994;SDS011;25686;51.908;10.418;2024-03-02T05:12:19;17.60;;;10.30;;
39994;SDS011;25686;51.908;10.418;2024-03-02T05:14:38;15.80;;;9.10;;
39994;SDS011;25686;51.908;10.418;2024-03-02T05:16:39;16.92;;;10.15;;
39994;SDS011;25686;51.908;10.418;2024-03-02T05:18:41;16.65;;;9.85;;
39994;SDS011;25686;51.908;10.418;2024-03-02T05:20:42;16.35;;;9.90;;
39994;SDS011;25686;51.908;10.418;2024-03-02T05:22:43;17.20;;;10.25;;
39994;SDS011;25686;51.908;10.418;2024-03-02T05:24:44;20.00;;;10.63;;
39994;SDS011;25686;51.908;10.418;2024-03-02T05:26:45;17.73;;;11.00;;
39994;SDS011;25686;51.908;10.418;2024-03-02T05:28:46;20.83;;;11.07;;
39994;SDS011;25686;51.908;10.418;2024-03-02T05:30:47;18.90;;;11.20;;
39994;SDS011;25686;51.908;10.418;2024-03-02T05:32:48;22.63;;;11.77;;
39994;SDS011;25686;51.908;10.418;2024-03-02T05:34:49;19.35;;;10.98;;
39994;SDS011;25686;51.908;10.418;2024-03-02T05:36:52;19.08;;;11.10;;
39994;SDS011;25686;51.908;10.418;2024-03-02T05:38:54;20.48;;;11.10;;
39994;SDS011;25686;51.908;10.418;2024-03-02T05:40:54;19.48;;;11.13;;
39994;SDS011;25686;51.908;10.418;2024-03-02T05:42:56;18.27;;;11.15;;
39994;SDS011;25686;51.908;10.418;2024-03-02T05:44:57;19.92;;;10.57;;
39994;SDS011;25686;51.908;10.418;2024-03-02T05:46:58;17.92;;;10.25;;
39994;SDS011;25686;51.908;10.418;2024-03-02T05:49:01;19.42;;;11.60;;
39994;SDS011;25686;51.908;10.418;2024-03-02T05:51:02;19.05;;;11.32;;
39994;SDS011;25686;51.908;10.418;2024-03-02T05:53:03;20.73;;;11.07;;
39994;SDS011;25686;51.908;10.418;2024-03-02T05:55:04;18.88;;;11.05;;
39994;SDS011;25686;51.908;10.418;2024-03-02T05:57:05;18.55;;;11.43;;
39994;SDS011;25686;51.908;10.418;2024-03-02T05:59:26;20.52;;;11.05;;
39994;SDS011;25686;51.908;10.418;2024-03-02T06:01:27;19.20;;;12.05;;
39994;SDS011;25686;51.908;10.418;2024-03-02T06:03:29;17.58;;;11.10;;
39994;SDS011;25686;51.908;10.418;2024-03-02T06:05:30;21.20;;;11.45;;
39994;SDS011;25686;51.908;10.418;2024-03-02T06:07:31;20.63;;;11.68;;
39994;SDS011;25686;51.908;10.418;2024-03-02T06:09:32;20.38;;;11.40;;
39994;SDS011;25686;51.908;10.418;2024-03-02T06:11:33;18.23;;;10.88;;
39994;SDS011;25686;51.908;10.418;2024-03-02T06:13:34;18.92;;;10.18;;
39994;SDS011;25686;51.908;10.418;2024-03-02T06:15:35;17.60;;;10.52;;
39994;SDS011;25686;51.908;10.418;2024-03-02T06:17:36;20.15;;;10.93;;
39994;SDS011;25686;51.908;10.418;2024-03-02T06:19:37;18.23;;;10.55;;
39994;SDS011;25686;51.908;10.418;2024-03-02T06:21:38;17.90;;;10.57;;
39994;SDS011;25686;51.908;10.418;2024-03-02T06:23:40;19.00;;;10.27;;
39994;SDS011;25686;51.908;10.418;2024-03-02T06:25:41;16.88;;;9.93;;
39994;SDS011;25686;51.908;10.418;2024-03-02T06:27:42;18.10;;;9.48;;
39994;SDS011;25686;51.908;10.418;2024-03-02T06:29:43;16.88;;;9.80;;
39994;SDS011;25686;51.908;10.418;2024-03-02T06:31:44;16.85;;;8.25;;
39994;SDS011;25686;51.908;10.418;2024-03-02T06:33:45;17.40;;;9.93;;
39994;SDS011;25686;51.908;10.418;2024-03-02T06:35:46;14.90;;;8.90;;
39994;SDS011;25686;51.908;10.418;2024-03-02T06:37:47;15.85;;;9.52;;
39994;SDS011;25686;51.908;10.418;2024-03-02T06:39:48;16.27;;;9.05;;
39994;SDS011;25686;51.908;10.418;2024-03-02T06:41:49;16.52;;;9.05;;
39994;SDS011;25686;51.908;10.418;2024-03-02T06:43:50;16.27;;;9.45;;
39994;SDS011;25686;51.908;10.418;2024-03-02T06:45:54;14.88;;;8.88;;
39994;SDS011;25686;51.908;10.418;2024-03-02T06:47:55;13.93;;;8.77;;
39994;SDS011;25686;51.908;10.418;2024-03-02T06:49:56;14.80;;;8.85;;
39994;SDS011;25686;51.908;10.418;2024-03-02T06:51:58;18.25;;;9.02;;
39994;SDS011;25686;51.908;10.418;2024-03-02T06:53:59;14.43;;;8.48;;
39994;SDS011;25686;51.908;10.418;2024-03-02T06:56:00;12.52;;;7.95;;
39994;SDS011;25686;51.908;10.418;2024-03-02T06:58:01;12.60;;;7.65;;
39994;SDS011;25686;51.908;10.418;2024-03-02T07:00:02;13.98;;;7.43;;
39994;SDS011;25686;51.908;10.418;2024-03-02T07:02:05;13.73;;;8.15;;
39994;SDS011;25686;51.908;10.418;2024-03-02T07:04:06;17.90;;;8.52;;
39994;SDS011;25686;51.908;10.418;2024-03-02T07:06:07;15.45;;;8.82;;
39994;SDS011;25686;51.908;10.418;2024-03-02T07:08:08;13.13;;;7.28;;
39994;SDS011;25686;51.908;10.418;2024-03-02T07:10:09;11.90;;;7.47;;
39994;SDS011;25686;51.908;10.418;2024-03-02T07:12:10;11.57;;;7.30;;
39994;SDS011;25686;51.908;10.418;2024-03-02T07:14:11;12.80;;;7.35;;
39994;SDS011;25686;51.908;10.418;2024-03-02T07:16:12;11.43;;;6.80;;
39994;SDS011;25686;51.908;10.418;2024-03-02T07:18:30;16.42;;;7.20;;
39994;SDS011;25686;51.908;10.418;2024-03-02T07:20:31;11.50;;;6.80;;
39994;SDS011;25686;51.908;10.418;2024-03-02T07:22:32;11.95;;;6.90;;
39994;SDS011;25686;51.908;10.418;2024-03-02T07:24:42;10.88;;;6.60;;
39994;SDS011;25686;51.908;10.418;2024-03-02T07:26:43;10.73;;;6.53;;
39994;SDS011;25686;51.908;10.418;2024-03-02T07:28:45;11.30;;;6.15;;
39994;SDS011;25686;51.908;10.418;2024-03-02T07:30:47;10.32;;;6.32;;
39994;SDS011;25686;51.908;10.418;2024-03-02T07:32:58;9.50;;;5.95;;
39994;SDS011;25686;51.908;10.418;2024-03-02T07:34:59;11.20;;;6.57;;
39994;SDS011;25686;51.908;10.418;2024-03-02T07:37:01;11.25;;;6.60;;
39994;SDS011;25686;51.908;10.418;2024-03-02T07:39:02;9.63;;;5.97;;
39994;SDS011;25686;51.908;10.418;2024-03-02T07:41:03;8.60;;;4.93;;
39994;SDS011;25686;51.908;10.418;2024-03-02T07:43:04;10.38;;;5.45;;
39994;SDS011;25686;51.908;10.418;2024-03-02T07:45:05;9.77;;;5.60;;
39994;SDS011;25686;51.908;10.418;2024-03-02T07:47:06;10.15;;;4.93;;
39994;SDS011;25686;51.908;10.418;2024-03-02T07:49:08;8.95;;;5.50;;
39994;SDS011;25686;51.908;10.418;2024-03-02T07:51:09;12.18;;;5.32;;
39994;SDS011;25686;51.908;10.418;2024-03-02T07:53:10;10.82;;;5.80;;
39994;SDS011;25686;51.908;10.418;2024-03-02T07:55:11;9.55;;;5.75;;
39994;SDS011;25686;51.908;10.418;2024-03-02T07:57:12;9.52;;;5.40;;
39994;SDS011;25686;51.908;10.418;2024-03-02T07:59:13;8.30;;;4.97;;
39994;SDS011;25686;51.908;10.418;2024-03-02T08:01:14;9.60;;;5.20;;
39994;SDS011;25686;51.908;10.418;2024-03-02T08:03:15;7.97;;;4.82;;
39994;SDS011;25686;51.908;10.418;2024-03-02T08:05:16;9.38;;;5.15;;
39994;SDS011;25686;51.908;10.418;2024-03-02T08:07:18;8.32;;;4.93;;
39994;SDS011;25686;51.908;10.418;2024-03-02T08:09:19;9.77;;;4.55;;
39994;SDS011;25686;51.908;10.418;2024-03-02T08:11:21;8.23;;;4.88;;
39994;SDS011;25686;51.908;10.418;2024-03-02T08:13:22;7.40;;;4.72;;
39994;SDS011;25686;51.908;10.418;2024-03-02T08:15:23;7.32;;;5.05;;
39994;SDS011;25686;51.908;10.418;2024-03-02T08:17:24;8.77;;;4.30;;
39994;SDS011;25686;51.908;10.418;2024-03-02T08:19:25;6.82;;;4.18;;
39994;SDS011;25686;51.908;10.418;2024-03-02T08:21:26;6.93;;;4.22;;
39994;SDS011;25686;51.908;10.418;2024-03-02T08:23:30;9.88;;;4.45;;
39994;SDS011;25686;51.908;10.418;2024-03-02T08:25:32;8.98;;;4.53;;
39994;SDS011;25686;51.908;10.418;2024-03-02T08:27:33;7.03;;;4.13;;
39994;SDS011;25686;51.908;10.418;2024-03-02T08:29:34;6.07;;;4.00;;
39994;SDS011;25686;51.908;10.418;2024-03-02T08:31:35;7.32;;;4.38;;
39994;SDS011;25686;51.908;10.418;2024-03-02T08:33:36;9.82;;;4.13;;
39994;SDS011;25686;51.908;10.418;2024-03-02T08:35:36;5.80;;;4.00;;
39994;SDS011;25686;51.908;10.418;2024-03-02T08:37:39;6.50;;;3.92;;
39994;SDS011;25686;51.908;10.418;2024-03-02T08:39:40;6.85;;;3.65;;
39994;SDS011;25686;51.908;10.418;2024-03-02T08:41:41;5.93;;;3.30;;
39994;SDS011;25686;51.908;10.418;2024-03-02T08:43:43;4.47;;;3.10;;
39994;SDS011;25686;51.908;10.418;2024-03-02T08:45:44;5.88;;;3.40;;
39994;SDS011;25686;51.908;10.418;2024-03-02T08:47:46;6.60;;;3.28;;
39994;SDS011;25686;51.908;10.418;2024-03-02T08:49:46;7.28;;;3.35;;
39994;SDS011;25686;51.908;10.418;2024-03-02T08:51:47;6.03;;;3.30;;
39994;SDS011;25686;51.908;10.418;2024-03-02T08:53:54;5.88;;;3.15;;
39994;SDS011;25686;51.908;10.418;2024-03-02T08:55:55;4.93;;;2.90;;
39994;SDS011;25686;51.908;10.418;2024-03-02T08:57:56;6.07;;;3.25;;
39994;SDS011;25686;51.908;10.418;2024-03-02T08:59:57;5.82;;;3.38;;
39994;SDS011;25686;51.908;10.418;2024-03-02T09:01:58;8.30;;;3.70;;
39994;SDS011;25686;51.908;10.418;2024-03-02T09:03:59;5.95;;;3.88;;
39994;SDS011;25686;51.908;10.418;2024-03-02T09:06:00;5.88;;;3.33;;
39994;SDS011;25686;51.908;10.418;2024-03-02T09:08:01;4.60;;;3.03;;
39994;SDS011;25686;51.908;10.418;2024-03-02T09:10:04;4.45;;;3.08;;
39994;SDS011;25686;51.908;10.418;2024-03-02T09:12:06;4.63;;;3.30;;
39994;SDS011;25686;51.908;10.418;2024-03-02T09:14:07;4.18;;;2.88;;
39994;SDS011;25686;51.908;10.418;2024-03-02T09:16:08;4.97;;;2.78;;
39994;SDS011;25686;51.908;10.418;2024-03-02T09:18:11;4.38;;;2.70;;
39994;SDS011;25686;51.908;10.418;2024-03-02T09:20:12;5.18;;;2.95;;
39994;SDS011;25686;51.908;10.418;2024-03-02T09:22:14;3.83;;;2.63;;
39994;SDS011;25686;51.908;10.418;2024-03-02T09:24:15;4.07;;;2.60;;
39994;SDS011;25686;51.908;10.418;2024-03-02T09:26:15;4.47;;;2.53;;
39994;SDS011;25686;51.908;10.418;2024-03-02T09:28:16;4.93;;;3.10;;
39994;SDS011;25686;51.908;10.418;2024-03-02T09:30:18;4.00;;;2.85;;
39994;SDS011;25686;51.908;10.418;2024-03-02T09:32:19;4.10;;;2.67;;
39994;SDS011;25686;51.908;10.418;2024-03-02T09:34:20;5.85;;;2.92;;
39994;SDS011;25686;51.908;10.418;2024-03-02T09:36:22;5.38;;;3.35;;
39994;SDS011;25686;51.908;10.418;2024-03-02T09:38:23;5.53;;;3.28;;
39994;SDS011;25686;51.908;10.418;2024-03-02T09:40:24;4.20;;;3.15;;
39994;SDS011;25686;51.908;10.418;2024-03-02T09:42:25;4.25;;;3.05;;
39994;SDS011;25686;51.908;10.418;2024-03-02T09:44:26;4.30;;;3.00;;
39994;SDS011;25686;51.908;10.418;2024-03-02T09:46:27;4.45;;;3.08;;
39994;SDS011;25686;51.908;10.418;2024-03-02T09:48:29;3.28;;;2.60;;
39994;SDS011;25686;51.908;10.418;2024-03-02T09:50:30;5.28;;;3.05;;
39994;SDS011;25686;51.908;10.418;2024-03-02T09:52:31;5.10;;;2.90;;
39994;SDS011;25686;51.908;10.418;2024-03-02T09:54:32;4.75;;;2.90;;
39994;SDS011;25686;51.908;10.418;2024-03-02T09:56:33;5.68;;;2.67;;
39994;SDS011;25686;51.908;10.418;2024-03-02T09:58:34;3.55;;;2.25;;
39994;SDS011;25686;51.908;10.418;2024-03-02T10:00:35;3.80;;;2.50;;
39994;SDS011;25686;51.908;10.418;2024-03-02T10:02:36;3.45;;;2.50;;
39994;SDS011;25686;51.908;10.418;2024-03-02T10:04:37;3.72;;;2.38;;
39994;SDS011;25686;51.908;10.418;2024-03-02T10:06:38;3.97;;;2.80;;
39994;SDS011;25686;51.908;10.418;2024-03-02T10:08:45;5.15;;;2.28;;
39994;SDS011;25686;51.908;10.418;2024-03-02T10:10:46;4.13;;;2.45;;
39994;SDS011;25686;51.908;10.418;2024-03-02T10:12:47;4.35;;;2.80;;
39994;SDS011;25686;51.908;10.418;2024-03-02T10:14:48;5.03;;;2.70;;
39994;SDS011;25686;51.908;10.418;2024-03-02T10:16:50;3.83;;;2.45;;
39994;SDS011;25686;51.908;10.418;2024-03-02T10:18:51;2.90;;;2.28;;
39994;SDS011;25686;51.908;10.418;2024-03-02T10:20:52;3.33;;;2.15;;
39994;SDS011;25686;51.908;10.418;2024-03-02T10:22:53;4.00;;;2.42;;
39994;SDS011;25686;51.908;10.418;2024-03-02T10:24:54;5.47;;;2.50;;
39994;SDS011;25686;51.908;10.418;2024-03-02T10:26:55;3.63;;;2.25;;
39994;SDS011;25686;51.908;10.418;2024-03-02T10:28:56;4.03;;;2.85;;
39994;SDS011;25686;51.908;10.418;2024-03-02T10:30:59;5.50;;;2.50;;
39994;SDS011;25686;51.908;10.418;2024-03-02T10:33:03;4.30;;;2.33;;
39994;SDS011;25686;51.908;10.418;2024-03-02T10:35:04;3.92;;;2.50;;
39994;SDS011;25686;51.908;10.418;2024-03-02T10:37:06;5.10;;;2.50;;
39994;SDS011;25686;51.908;10.418;2024-03-02T10:39:08;3.35;;;2.25;;
39994;SDS011;25686;51.908;10.418;2024-03-02T10:41:09;5.35;;;2.70;;
39994;SDS011;25686;51.908;10.418;2024-03-02T10:43:10;5.00;;;2.30;;
39994;SDS011;25686;51.908;10.418;2024-03-02T10:45:12;4.90;;;2.28;;
39994;SDS011;25686;51.908;10.418;2024-03-02T10:47:16;4.03;;;2.10;;
39994;SDS011;25686;51.908;10.418;2024-03-02T10:49:18;4.10;;;2.28;;
39994;SDS011;25686;51.908;10.418;2024-03-02T10:51:19;2.63;;;1.83;;
39994;SDS011;25686;51.908;10.418;2024-03-02T10:53:20;4.70;;;2.10;;
39994;SDS011;25686;51.908;10.418;2024-03-02T10:55:21;2.15;;;1.50;;
39994;SDS011;25686;51.908;10.418;2024-03-02T10:57:22;3.92;;;1.73;;
39994;SDS011;25686;51.908;10.418;2024-03-02T11:01:29;2.88;;;1.77;;
39994;SDS011;25686;51.908;10.418;2024-03-02T11:03:35;2.97;;;1.67;;
39994;SDS011;25686;51.908;10.418;2024-03-02T11:05:41;3.08;;;1.75;;
39994;SDS011;25686;51.908;10.418;2024-03-02T11:07:44;3.85;;;1.80;;
39994;SDS011;25686;51.908;10.418;2024-03-02T11:09:50;4.10;;;1.63;;
39994;SDS011;25686;51.908;10.418;2024-03-02T11:11:58;2.10;;;1.55;;
39994;SDS011;25686;51.908;10.418;2024-03-02T11:14:01;4.43;;;1.90;;
39994;SDS011;25686;51.908;10.418;2024-03-02T11:16:12;3.50;;;1.73;;
39994;SDS011;25686;51.908;10.418;2024-03-02T11:18:17;3.22;;;1.70;;
39994;SDS011;25686;51.908;10.418;2024-03-02T11:20:18;4.05;;;1.80;;
39994;SDS011;25686;51.908;10.418;2024-03-02T11:22:20;4.88;;;1.67;;
39994;SDS011;25686;51.908;10.418;2024-03-02T11:26:27;4.10;;;1.50;;
39994;SDS011;25686;51.908;10.418;2024-03-02T11:28:34;2.53;;;1.50;;
39994;SDS011;25686;51.908;10.418;2024-03-02T11:32:37;3.13;;;1.58;;
39994;SDS011;25686;51.908;10.418;2024-03-02T11:34:38;3.28;;;2.05;;
39994;SDS011;25686;51.908;10.418;2024-03-02T11:36:45;2.78;;;1.50;;
39994;SDS011;25686;51.908;10.418;2024-03-02T11:38:46;3.80;;;1.70;;
39994;SDS011;25686;51.908;10.418;2024-03-02T11:40:48;3.28;;;2.00;;
39994;SDS011;25686;51.908;10.418;2024-03-02T11:42:49;3.20;;;1.60;;
39994;SDS011;25686;51.908;10.418;2024-03-02T11:44:50;5.22;;;1.85;;
39994;SDS011;25686;51.908;10.418;2024-03-02T11:47:06;3.40;;;1.70;;
39994;SDS011;25686;51.908;10.418;2024-03-02T11:49:08;2.58;;;1.60;;
39994;SDS011;25686;51.908;10.418;2024-03-02T11:51:09;2.95;;;1.75;;
39994;SDS011;25686;51.908;10.418;2024-03-02T11:53:12;3.00;;;1.88;;
39994;SDS011;25686;51.908;10.418;2024-03-02T11:55:13;4.88;;;2.00;;